Time;durP1;ratioP1;P1;durP2;ratioP2;P2;SDS_P1;SDS_P2;PMS_P1;PMS_P2;Temp;Humidity;BMP_temperature;BMP_pressure;BME280_temperature;BME280_humidity;BME280_pressure;Samples;Min_cycle;Max_cycle;Signal;HPM_P1;HPM_P2
2021/10/21 15:46:26;;;;;;;29.00;2.57;;;17.10;99.40;;;;;;4476539;31;20212;-68
2021/10/21 15:51:58;;;;;;;36.67;2.43;;;17.00;99.60;;;;;;4469264;32;20165;-68
2021/10/21 16:11:38;;;;;;;30.80;2.53;;;16.00;99.90;;;;;;4436013;32;20189;-68
2021/10/21 16:14:03;;;;;;;41.93;2.77;;;15.90;99.90;;;;;;4434557;32;20169;-69
2021/10/21 16:16:30;;;;;;;32.47;3.37;;;15.80;99.90;;;;;;4433962;32;20547;-69
2021/10/21 16:18:58;;;;;;;43.73;3.17;;;15.80;99.90;;;;;;4435930;32;20247;-69
2021/10/21 16:21:28;;;;;;;31.63;2.57;;;15.70;99.90;;;;;;4435868;32;20201;-68
2021/10/21 16:24:01;;;;;;;23.63;2.20;;;15.70;99.90;;;;;;4434923;32;20243;-68
2021/10/21 16:26:33;;;;;;;39.23;2.63;;;15.70;99.90;;;;;;4435274;32;20235;-68
2021/10/21 16:29:02;;;;;;;28.33;2.07;;;15.60;99.90;;;;;;4433940;32;20153;-69
2021/10/21 16:31:30;;;;;;;34.60;3.07;;;15.60;99.90;;;;;;4434356;32;20195;-68
2021/10/21 16:33:57;;;;;;;26.83;2.23;;;15.50;99.90;;;;;;4446899;32;20146;-70
2021/10/21 16:36:26;;;;;;;12.07;1.80;;;15.40;99.90;;;;;;4467917;32;20135;-70
2021/10/21 16:38:53;;;;;;;17.53;2.30;;;15.40;99.90;;;;;;4467077;32;20130;-69
2021/10/21 16:41:20;;;;;;;20.73;2.10;;;15.30;99.90;;;;;;4468409;32;20225;-71
2021/10/21 16:43:51;;;;;;;21.03;2.07;;;15.20;99.90;;;;;;4467451;32;20477;-69
2021/10/21 16:46:22;;;;;;;24.07;3.03;;;15.10;99.90;;;;;;4468381;32;20189;-68
2021/10/21 16:48:49;;;;;;;17.63;1.60;;;15.10;99.90;;;;;;4466703;32;20153;-68
2021/10/21 16:51:16;;;;;;;16.90;1.93;;;15.00;99.90;;;;;;4466837;32;20405;-68
2021/10/21 16:53:43;;;;;;;19.13;1.40;;;14.90;99.90;;;;;;4468006;32;20174;-69
2021/10/21 16:56:12;;;;;;;12.00;1.20;;;14.90;99.90;;;;;;4463821;32;20130;-68
2021/10/21 16:58:49;;;;;;;11.83;1.20;;;14.90;99.90;;;;;;4457217;32;20429;-67
2021/10/21 17:01:17;;;;;;;13.40;1.27;;;14.80;99.90;;;;;;4457680;32;20146;-68
2021/10/21 17:03:45;;;;;;;17.20;1.30;;;14.70;99.90;;;;;;4455547;32;20138;-69
2021/10/21 17:06:16;;;;;;;15.37;1.77;;;14.60;99.90;;;;;;4456115;32;20150;-68
2021/10/21 17:08:43;;;;;;;15.33;1.57;;;14.60;99.90;;;;;;4455970;32;20474;-70
2021/10/21 17:11:10;;;;;;;16.43;1.40;;;14.50;99.90;;;;;;4456115;32;20209;-69
2021/10/21 17:13:37;;;;;;;18.53;1.50;;;14.50;99.90;;;;;;4457424;32;20152;-69
2021/10/21 17:16:09;;;;;;;15.97;1.40;;;14.40;99.90;;;;;;4456750;32;20215;-69
2021/10/21 17:18:37;;;;;;;15.43;1.43;;;14.40;99.90;;;;;;4457920;32;20503;-69
2021/10/21 17:21:05;;;;;;;18.67;1.50;;;14.30;99.90;;;;;;4457427;32;20142;-68
2021/10/21 17:23:33;;;;;;;18.23;1.33;;;14.20;99.90;;;;;;4456169;32;20144;-68
2021/10/21 17:26:00;;;;;;;12.73;1.13;;;14.20;99.90;;;;;;4457083;32;20131;-68
2021/10/21 17:28:41;;;;;;;10.03;1.10;;;14.10;99.90;;;;;;4457280;32;20134;-68
2021/10/21 17:31:08;;;;;;;5.40;1.20;;;14.00;99.90;;;;;;4455398;32;20488;-67
2021/10/21 17:33:35;;;;;;;14.00;1.10;;;13.90;99.90;;;;;;4457698;32;20152;-68
2021/10/21 17:36:03;;;;;;;4.60;0.97;;;13.80;99.90;;;;;;4455720;32;20142;-68
2021/10/21 17:38:30;;;;;;;10.67;1.00;;;13.70;99.90;;;;;;4454814;32;20206;-68
2021/10/21 17:41:00;;;;;;;12.87;1.30;;;13.70;99.90;;;;;;4457482;32;20230;-67
2021/10/21 17:43:26;;;;;;;8.53;1.07;;;13.60;99.90;;;;;;4457729;32;20391;-68
2021/10/21 17:45:57;;;;;;;8.43;1.00;;;13.50;99.90;;;;;;4455172;32;20203;-68
2021/10/21 17:48:24;;;;;;;7.73;1.10;;;13.50;99.90;;;;;;4457335;32;20164;-67
2021/10/21 17:50:50;;;;;;;5.10;0.97;;;13.40;99.90;;;;;;4456665;32;20169;-68
2021/10/21 17:53:18;;;;;;;12.50;1.20;;;13.50;99.90;;;;;;4455485;32;20142;-68
2021/10/21 17:55:45;;;;;;;6.23;0.93;;;13.50;99.90;;;;;;4456157;32;20157;-69
2021/10/21 17:58:13;;;;;;;13.37;1.73;;;13.50;99.90;;;;;;4457175;32;20134;-68
2021/10/21 18:00:40;;;;;;;6.60;1.20;;;13.50;99.90;;;;;;4455209;32;20398;-68
2021/10/21 18:03:07;;;;;;;4.53;1.20;;;13.40;99.90;;;;;;4457090;32;20149;-69
2021/10/21 18:05:34;;;;;;;8.37;1.47;;;13.40;99.90;;;;;;4455272;32;20479;-68
2021/10/21 18:08:03;;;;;;;6.63;1.67;;;13.40;99.90;;;;;;4454635;32;20381;-68
2021/10/21 18:10:31;;;;;;;7.37;1.00;;;13.50;99.90;;;;;;4457116;32;20225;-69
2021/10/21 18:13:01;;;;;;;7.90;1.37;;;13.50;99.90;;;;;;4455360;32;20173;-68
2021/10/21 18:15:28;;;;;;;12.47;1.50;;;13.50;99.90;;;;;;4455702;32;20417;-68
2021/10/21 18:17:55;;;;;;;18.83;2.30;;;13.40;99.90;;;;;;4456070;32;20134;-67
2021/10/21 18:20:23;;;;;;;16.10;1.37;;;13.50;99.90;;;;;;4457103;32;20127;-66
2021/10/21 18:22:52;;;;;;;11.37;1.33;;;13.50;99.90;;;;;;4457002;32;20133;-66
2021/10/21 18:25:19;;;;;;;9.07;1.73;;;13.40;99.90;;;;;;4456891;32;20184;-66
2021/10/21 18:27:49;;;;;;;10.00;1.30;;;13.40;99.90;;;;;;4456011;32;20124;-65
2021/10/21 18:30:16;;;;;;;10.77;1.70;;;13.40;99.90;;;;;;4456606;32;20190;-65
2021/10/21 18:32:43;;;;;;;7.17;1.50;;;13.40;99.90;;;;;;4455889;32;20145;-66
2021/10/21 18:35:09;;;;;;;7.67;1.50;;;13.40;99.90;;;;;;4455706;32;20343;-66
2021/10/21 18:37:37;;;;;;;13.70;1.30;;;13.40;99.90;;;;;;4454655;32;20479;-66
2021/10/21 18:40:05;;;;;;;6.33;1.20;;;13.40;99.90;;;;;;4455942;32;20122;-66
2021/10/21 18:42:32;;;;;;;8.83;1.20;;;13.30;99.90;;;;;;4455972;32;20392;-66
2021/10/21 18:44:59;;;;;;;10.13;1.20;;;13.30;99.90;;;;;;4454678;32;20241;-66
2021/10/21 18:47:27;;;;;;;11.63;1.37;;;13.30;99.90;;;;;;4455281;32;20196;-65
2021/10/21 18:49:55;;;;;;;8.63;1.50;;;13.20;99.90;;;;;;4456642;32;20181;-67
2021/10/21 18:52:21;;;;;;;11.43;1.90;;;13.20;99.90;;;;;;4455197;32;20138;-67
2021/10/21 18:54:48;;;;;;;10.07;1.90;;;13.10;99.90;;;;;;4456805;32;20160;-67
2021/10/21 18:57:20;;;;;;;10.00;1.70;;;13.10;99.90;;;;;;4456726;32;20159;-66
2021/10/21 18:59:50;;;;;;;10.00;1.67;;;13.00;99.90;;;;;;4456408;32;20482;-67
2021/10/21 19:02:19;;;;;;;10.33;1.67;;;12.90;99.90;;;;;;4454599;32;20165;-65
2021/10/21 19:04:47;;;;;;;13.03;1.47;;;12.90;99.90;;;;;;4454373;32;20410;-66
2021/10/21 19:07:14;;;;;;;9.90;1.70;;;12.90;99.90;;;;;;4453894;32;20122;-68
2021/10/21 19:09:41;;;;;;;9.67;1.63;;;12.80;99.90;;;;;;4455461;32;20162;-66
2021/10/21 19:12:10;;;;;;;12.57;1.67;;;12.80;99.90;;;;;;4455709;32;20130;-66
2021/10/21 19:14:38;;;;;;;10.77;1.57;;;12.60;99.90;;;;;;4455043;32;20207;-68
2021/10/21 19:17:05;;;;;;;9.00;1.60;;;12.60;99.90;;;;;;4455705;32;20164;-67
2021/10/21 19:19:41;;;;;;;11.07;1.40;;;12.60;99.90;;;;;;4455297;32;20160;-66
2021/10/21 19:22:08;;;;;;;7.50;1.40;;;12.60;99.90;;;;;;4455994;32;20134;-67
2021/10/21 19:24:36;;;;;;;11.70;1.87;;;12.50;99.90;;;;;;4454607;32;20182;-67
2021/10/21 19:27:03;;;;;;;7.70;1.73;;;12.50;99.90;;;;;;4455347;32;20130;-66
2021/10/21 19:29:30;;;;;;;8.23;1.30;;;12.50;99.90;;;;;;4454415;32;20146;-66
2021/10/21 19:31:57;;;;;;;11.13;1.43;;;12.40;99.90;;;;;;4455953;32;20172;-66
2021/10/21 19:34:26;;;;;;;10.93;1.60;;;12.40;99.90;;;;;;4454286;32;20165;-66
2021/10/21 19:36:53;;;;;;;11.40;1.67;;;12.30;99.90;;;;;;4455990;32;20194;-67
2021/10/21 19:39:20;;;;;;;12.13;1.50;;;12.30;99.90;;;;;;4455384;32;20168;-67
2021/10/21 19:41:47;;;;;;;8.20;1.60;;;12.30;99.90;;;;;;4454027;32;20464;-67
2021/10/21 19:44:15;;;;;;;6.50;1.40;;;12.30;99.90;;;;;;4455472;32;20234;-66
2021/10/21 19:46:42;;;;;;;6.57;1.70;;;12.20;99.90;;;;;;4455396;32;20208;-66
2021/10/21 19:49:10;;;;;;;6.70;1.53;;;12.20;99.90;;;;;;4455467;32;20158;-67
2021/10/21 19:51:37;;;;;;;10.10;1.50;;;12.20;99.90;;;;;;4454236;32;20138;-66
2021/10/21 19:54:04;;;;;;;9.43;1.50;;;12.10;99.90;;;;;;4454087;32;20122;-67
2021/10/21 19:56:31;;;;;;;7.60;1.80;;;12.10;99.90;;;;;;4454123;32;20131;-66
2021/10/21 19:58:58;;;;;;;5.80;1.50;;;12.00;99.90;;;;;;4454076;32;20214;-66
2021/10/21 20:01:25;;;;;;;8.07;2.20;;;12.00;99.90;;;;;;4455695;32;20323;-66
2021/10/21 20:03:52;;;;;;;6.53;1.80;;;12.00;99.90;;;;;;4454156;32;20486;-66
2021/10/21 20:06:19;;;;;;;6.53;1.60;;;11.90;99.90;;;;;;4453875;32;20169;-66
2021/10/21 20:08:46;;;;;;;7.90;1.40;;;11.90;99.90;;;;;;4455765;32;20123;-67
2021/10/21 20:11:13;;;;;;;6.93;1.40;;;11.80;99.90;;;;;;4453920;32;20493;-67
2021/10/21 20:13:40;;;;;;;7.20;1.57;;;11.80;99.90;;;;;;4454396;32;20143;-68
2021/10/21 20:16:12;;;;;;;7.17;1.40;;;11.80;99.90;;;;;;4453623;32;20225;-67
2021/10/21 20:18:40;;;;;;;13.77;1.63;;;11.80;99.90;;;;;;4453919;32;20161;-67
2021/10/21 20:21:07;;;;;;;14.57;1.60;;;11.80;99.90;;;;;;4455361;32;20386;-68
2021/10/21 20:23:34;;;;;;;10.60;1.80;;;11.80;99.90;;;;;;4454221;32;20143;-68
2021/10/21 20:26:02;;;;;;;7.57;1.30;;;11.70;99.90;;;;;;4454018;32;20520;-67
2021/10/21 20:28:29;;;;;;;6.40;1.40;;;11.70;99.90;;;;;;4455706;32;20210;-67
2021/10/21 20:30:56;;;;;;;8.10;1.63;;;11.70;99.90;;;;;;4455507;32;20170;-68
2021/10/21 20:33:23;;;;;;;5.83;1.60;;;11.70;99.90;;;;;;4458698;32;20149;-68
2021/10/21 20:35:50;;;;;;;7.50;1.67;;;11.60;99.90;;;;;;4458148;32;20190;-68
2021/10/21 20:38:17;;;;;;;7.90;1.60;;;11.60;99.90;;;;;;4457479;32;20123;-66
2021/10/21 20:40:44;;;;;;;6.50;1.40;;;11.60;99.90;;;;;;4456675;32;20127;-67
2021/10/21 20:43:12;;;;;;;5.37;1.60;;;11.60;99.90;;;;;;4458624;32;20194;-66
2021/10/21 20:45:39;;;;;;;5.43;1.57;;;11.60;99.90;;;;;;4456351;32;20209;-67
2021/10/21 20:48:10;;;;;;;7.10;1.73;;;11.60;99.90;;;;;;4458442;32;20127;-66
2021/10/21 20:50:43;;;;;;;5.73;1.53;;;11.60;99.90;;;;;;4456974;32;20150;-67
2021/10/21 20:53:10;;;;;;;4.57;1.20;;;11.60;99.90;;;;;;4456882;32;20162;-67
2021/10/21 20:55:37;;;;;;;5.30;1.40;;;11.50;99.90;;;;;;4458517;32;20246;-67
2021/10/21 20:58:04;;;;;;;4.43;1.57;;;11.50;99.90;;;;;;4456998;32;20127;-67
2021/10/21 21:00:31;;;;;;;5.40;1.43;;;11.40;99.90;;;;;;4457226;32;20197;-66
2021/10/21 21:02:58;;;;;;;5.03;1.40;;;11.40;99.90;;;;;;4456486;32;20149;-67
2021/10/21 21:05:25;;;;;;;3.07;1.30;;;11.40;99.90;;;;;;4458253;32;20154;-67
2021/10/21 21:07:52;;;;;;;2.90;1.27;;;11.40;99.90;;;;;;4458302;32;20194;-67
2021/10/21 21:10:19;;;;;;;4.13;1.30;;;11.40;99.90;;;;;;4457713;32;20241;-67
2021/10/21 21:12:46;;;;;;;3.80;1.50;;;11.30;99.90;;;;;;4457586;32;20179;-67
2021/10/21 21:15:25;;;;;;;2.60;1.10;;;11.30;99.90;;;;;;4456746;32;20503;-67
2021/10/21 21:17:52;;;;;;;2.83;1.20;;;11.30;99.90;;;;;;4458321;32;20528;-67
2021/10/21 21:20:19;;;;;;;4.13;1.27;;;11.30;99.90;;;;;;4457229;32;20225;-67
2021/10/21 21:22:46;;;;;;;2.93;1.10;;;11.20;99.90;;;;;;4456228;32;20194;-68
2021/10/21 21:25:13;;;;;;;4.27;1.23;;;11.20;99.90;;;;;;4456196;32;20126;-67
2021/10/21 21:27:40;;;;;;;2.77;1.30;;;11.20;99.90;;;;;;4457649;32;20277;-66
2021/10/21 21:30:08;;;;;;;5.87;1.00;;;11.10;99.90;;;;;;4457756;32;20126;-67
2021/10/21 21:32:36;;;;;;;4.00;1.30;;;11.20;99.90;;;;;;4457335;32;20138;-67
2021/10/21 21:35:04;;;;;;;7.50;2.23;;;11.10;99.90;;;;;;4457788;32;20123;-67
2021/10/21 21:37:31;;;;;;;3.27;1.40;;;11.10;99.90;;;;;;4457582;32;20179;-66
2021/10/21 21:39:58;;;;;;;2.00;1.20;;;11.10;99.90;;;;;;4455795;32;20130;-67
2021/10/21 21:42:26;;;;;;;2.57;1.07;;;11.10;99.90;;;;;;4457337;32;20130;-65
2021/10/21 21:44:52;;;;;;;3.23;1.67;;;11.00;99.90;;;;;;4457273;32;20166;-65
2021/10/21 21:47:21;;;;;;;2.97;1.40;;;11.00;99.90;;;;;;4455887;32;20225;-65
2021/10/21 21:49:48;;;;;;;2.57;1.30;;;11.00;99.90;;;;;;4457213;32;20209;-66
2021/10/21 21:52:15;;;;;;;5.03;1.50;;;11.00;99.90;;;;;;4455691;32;20164;-69
2021/10/21 21:54:44;;;;;;;3.60;1.30;;;11.00;99.90;;;;;;4455684;32;20123;-69
2021/10/21 21:57:11;;;;;;;3.57;1.30;;;11.00;99.90;;;;;;4455858;32;20122;-69
2021/10/21 21:59:38;;;;;;;3.17;1.40;;;10.90;99.90;;;;;;4455797;32;20122;-69
2021/10/21 22:02:05;;;;;;;4.03;1.40;;;10.90;99.90;;;;;;4455174;32;20182;-69
2021/10/21 22:04:32;;;;;;;3.90;1.40;;;11.00;99.90;;;;;;4455773;32;20382;-69
2021/10/21 22:06:59;;;;;;;3.17;1.33;;;11.00;99.90;;;;;;4457195;32;20138;-70
2021/10/21 22:09:27;;;;;;;3.57;1.60;;;11.00;99.90;;;;;;4457013;32;20123;-68
2021/10/21 22:11:54;;;;;;;2.53;1.30;;;11.00;99.90;;;;;;4457150;32;20142;-69
2021/10/21 22:14:23;;;;;;;5.60;1.40;;;11.00;99.90;;;;;;4455017;32;20203;-69
2021/10/21 22:16:55;;;;;;;4.33;1.40;;;10.90;99.90;;;;;;4455246;32;20213;-69
2021/10/21 22:19:36;;;;;;;4.20;1.43;;;10.90;99.90;;;;;;4456424;32;20231;-69
2021/10/21 22:22:03;;;;;;;3.27;1.20;;;10.90;99.90;;;;;;4454792;32;20182;-69
2021/10/21 22:24:30;;;;;;;3.97;1.30;;;11.00;99.90;;;;;;4455818;32;20199;-68
2021/10/21 22:26:57;;;;;;;3.57;1.50;;;11.00;99.90;;;;;;4456300;32;20134;-69
2021/10/21 22:29:24;;;;;;;3.30;1.33;;;11.00;99.90;;;;;;4456715;32;20142;-68
2021/10/21 22:31:51;;;;;;;3.97;1.43;;;11.00;99.90;;;;;;4454429;32;20175;-68
2021/10/21 22:34:17;;;;;;;4.13;1.40;;;11.00;99.90;;;;;;4456790;32;20134;-70
2021/10/21 22:36:44;;;;;;;3.77;1.30;;;11.00;99.90;;;;;;4454703;32;20186;-68
2021/10/21 22:39:11;;;;;;;3.03;1.40;;;11.00;99.90;;;;;;4454930;32;20343;-69
2021/10/21 22:41:58;;;;;;;3.87;1.33;;;11.00;99.90;;;;;;4454522;32;20207;-68
2021/10/21 22:44:25;;;;;;;3.93;1.30;;;11.00;99.90;;;;;;4454421;32;20185;-68
2021/10/21 22:46:52;;;;;;;3.27;1.37;;;11.10;99.90;;;;;;4456492;32;20141;-69
2021/10/21 22:49:19;;;;;;;2.67;1.23;;;11.20;99.90;;;;;;4456331;32;20186;-69
2021/10/21 22:51:46;;;;;;;8.10;1.43;;;11.10;99.90;;;;;;4454141;32;20205;-69
2021/10/21 22:54:13;;;;;;;4.13;1.17;;;11.20;99.90;;;;;;4454352;32;20482;-70
2021/10/21 22:56:40;;;;;;;4.27;1.67;;;11.20;99.90;;;;;;4456457;32;20166;-69
2021/10/21 22:59:17;;;;;;;2.83;1.30;;;11.20;99.90;;;;;;4455105;32;20527;-69
2021/10/21 23:01:47;;;;;;;4.07;1.27;;;11.20;99.90;;;;;;4456224;32;20161;-69
2021/10/21 23:04:15;;;;;;;4.03;1.33;;;11.30;99.90;;;;;;4456793;32;20138;-69
2021/10/21 23:06:42;;;;;;;4.07;1.20;;;11.30;99.90;;;;;;4455440;32;20184;-69
2021/10/21 23:09:08;;;;;;;3.93;1.40;;;11.30;99.90;;;;;;4456298;32;20183;-69
2021/10/21 23:11:35;;;;;;;3.03;1.30;;;11.40;99.90;;;;;;4454689;32;20202;-70
2021/10/21 23:14:02;;;;;;;3.47;1.30;;;11.40;99.90;;;;;;4456283;32;20122;-68
2021/10/21 23:16:29;;;;;;;2.87;1.20;;;11.50;99.90;;;;;;4454508;32;20130;-70
2021/10/21 23:18:56;;;;;;;5.83;1.20;;;11.50;99.90;;;;;;4455831;32;20142;-70
2021/10/21 23:21:23;;;;;;;1.80;1.30;;;11.60;99.90;;;;;;4455631;32;20414;-69
2021/10/21 23:23:50;;;;;;;3.67;1.40;;;11.60;99.90;;;;;;4454962;32;20210;-69
2021/10/21 23:26:17;;;;;;;3.97;1.73;;;11.70;99.90;;;;;;4456013;32;20182;-69
2021/10/21 23:28:45;;;;;;;2.47;1.20;;;11.70;99.90;;;;;;4456227;32;20138;-68
2021/10/21 23:31:12;;;;;;;2.37;1.30;;;11.70;99.90;;;;;;4455899;32;20474;-69
2021/10/21 23:33:38;;;;;;;4.93;1.20;;;11.80;99.90;;;;;;4454171;32;20191;-69
2021/10/21 23:36:05;;;;;;;5.17;1.33;;;11.80;99.90;;;;;;4455696;32;20145;-69
2021/10/21 23:38:32;;;;;;;3.67;1.20;;;11.80;99.90;;;;;;4455959;32;20126;-69
2021/10/21 23:41:00;;;;;;;4.40;1.30;;;11.90;99.90;;;;;;4454009;32;20149;-69
2021/10/21 23:43:27;;;;;;;3.67;1.10;;;11.90;99.90;;;;;;4454443;32;20122;-70
2021/10/21 23:45:54;;;;;;;9.23;1.60;;;11.90;99.90;;;;;;4455737;32;20185;-68
2021/10/21 23:48:21;;;;;;;3.70;1.10;;;11.90;99.90;;;;;;4456062;32;20127;-69
2021/10/21 23:50:48;;;;;;;4.30;1.47;;;11.90;99.90;;;;;;4456031;32;20127;-69
2021/10/21 23:53:14;;;;;;;3.90;1.40;;;11.90;99.90;;;;;;4454232;32;20123;-69
2021/10/21 23:55:41;;;;;;;2.50;1.20;;;11.90;99.90;;;;;;4455734;32;20440;-69
2021/10/21 23:58:08;;;;;;;1.83;1.20;;;11.90;99.90;;;;;;4455701;32;20447;-69
